createdAt,value
2018-08-30T00:00:02.924Z,99100.34
2018-08-30T00:02:32.403Z,99105.18
2018-08-30T00:05:00.760Z,99107.02
2018-08-30T00:07:31.722Z,99106.78
2018-08-30T00:10:00.072Z,99107.45
2018-08-30T00:12:29.059Z,99109.26
2018-08-30T00:14:59.548Z,99115.13
2018-08-30T00:17:32.432Z,99113.64
2018-08-30T00:20:01.640Z,99112.86
2018-08-30T00:22:30.212Z,99117.99
2018-08-30T00:24:59.481Z,99122.13
2018-08-30T00:27:29.575Z,99126.72
2018-08-30T00:29:58.469Z,99130.89
2018-08-30T00:32:27.644Z,99136.27
2018-08-30T00:34:57.304Z,99132.24
2018-08-30T00:37:26.475Z,99141.81
2018-08-30T00:39:55.966Z,99140.09
2018-08-30T00:42:24.303Z,99142.77
2018-08-30T00:44:52.680Z,99151.39
2018-08-30T00:47:21.823Z,99151.05
2018-08-30T00:49:52.020Z,99155.62
2018-08-30T00:52:24.023Z,99157.41
2018-08-30T00:54:52.416Z,99164.77
2018-08-30T00:57:22.423Z,99170.27
2018-08-30T00:59:51.499Z,99167.69
2018-08-30T01:02:21.073Z,99171.75
2018-08-30T01:04:51.098Z,99173.68
2018-08-30T01:07:20.605Z,99177.70
2018-08-30T01:09:48.953Z,99181.73
2018-08-30T01:12:17.696Z,99181.34
2018-08-30T01:14:46.437Z,99179.40
2018-08-30T01:17:15.391Z,99081.55
2018-08-30T01:19:44.379Z,99186.39
2018-08-30T01:22:14.190Z,99188.37
2018-08-30T01:24:42.554Z,99187.73
2018-08-30T01:27:12.634Z,99188.16
2018-08-30T01:29:41.504Z,99199.22
2018-08-30T01:32:10.793Z,99191.38
2018-08-30T01:34:39.774Z,99191.31
2018-08-30T01:37:08.156Z,99194.60
2018-08-30T01:39:37.452Z,99199.30
2018-08-30T01:42:07.599Z,99204.04
2018-08-30T01:44:36.495Z,99199.84
2018-08-30T01:47:06.257Z,99202.69
2018-08-30T01:49:35.682Z,99196.54
2018-08-30T01:52:05.181Z,99206.31
2018-08-30T01:54:34.535Z,99208.70
2018-08-30T01:57:17.797Z,99207.71
2018-08-30T01:59:46.833Z,99212.25
2018-08-30T02:02:16.466Z,99208.28
2018-08-30T02:04:46.728Z,99207.06
2018-08-30T02:07:16.702Z,99209.49
2018-08-30T02:09:48.031Z,99205.37
2018-08-30T02:12:18.893Z,99209.49
2018-08-30T02:14:49.936Z,99214.71
2018-08-30T02:17:19.443Z,99220.86
2018-08-30T02:19:48.636Z,99222.41
2018-08-30T02:22:18.142Z,99223.54
2018-08-30T02:24:47.177Z,99231.27
2018-08-30T02:27:16.488Z,99225.91
2018-08-30T02:29:46.495Z,99226.16
2018-08-30T02:32:15.646Z,99221.25
2018-08-30T02:34:46.644Z,99222.97
2018-08-30T02:37:16.547Z,99227.02
2018-08-30T02:39:46.428Z,99224.00
2018-08-30T02:42:15.598Z,99229.33
2018-08-30T02:44:45.844Z,99231.13
2018-08-30T02:47:14.485Z,99235.61
2018-08-30T02:49:43.095Z,99236.63
2018-08-30T02:52:13.336Z,99242.12
2018-08-30T02:54:43.279Z,99242.95
2018-08-30T02:57:13.296Z,99243.27
2018-08-30T02:59:42.396Z,99234.91
2018-08-30T03:02:11.583Z,99236.97
2018-08-30T03:04:42.356Z,99241.32
2018-08-30T03:07:11.980Z,99240.75
2018-08-30T03:09:41.392Z,99239.11
2018-08-30T03:12:09.733Z,99247.05
2018-08-30T03:14:40.928Z,99247.65
2018-08-30T03:17:10.097Z,99252.84
2018-08-30T03:19:38.755Z,99249.85
2018-08-30T03:22:07.537Z,99251.34
2018-08-30T03:24:37.297Z,99250.31
2018-08-30T03:27:07.304Z,99251.67
2018-08-30T03:29:35.701Z,99252.68
2018-08-30T03:32:04.837Z,99255.44
2018-08-30T03:34:33.175Z,99261.31
2018-08-30T03:37:02.804Z,99257.97
2018-08-30T03:39:33.359Z,99270.56
2018-08-30T03:42:02.756Z,99273.05
2018-08-30T03:44:31.468Z,99263.03
2018-08-30T03:47:00.314Z,99268.55
2018-08-30T03:49:29.572Z,99270.04
2018-08-30T03:51:58.385Z,99276.59
2018-08-30T03:54:30.169Z,99277.29
2018-08-30T03:56:59.189Z,99284.33
2018-08-30T03:59:29.617Z,99274.61
2018-08-30T04:02:00.680Z,99277.50
2018-08-30T04:04:29.797Z,99278.16
2018-08-30T04:06:58.934Z,99268.27
2018-08-30T04:09:27.979Z,99275.14
2018-08-30T04:11:56.948Z,99282.70
2018-08-30T04:14:25.587Z,99286.55
2018-08-30T04:16:54.039Z,99292.60
2018-08-30T04:19:23.340Z,99293.97
2018-08-30T04:21:52.194Z,99296.16
2018-08-30T04:24:21.391Z,99294.14
2018-08-30T04:26:51.479Z,99295.64
2018-08-30T04:29:24.229Z,99298.83
2018-08-30T04:31:56.880Z,99306.86
2018-08-30T04:34:27.212Z,99297.17
2018-08-30T04:36:57.060Z,99304.52
2018-08-30T04:39:26.132Z,99299.02
2018-08-30T04:41:54.588Z,99305.88
2018-08-30T04:44:24.275Z,99306.86
2018-08-30T04:46:54.131Z,99305.38
2018-08-30T04:49:23.015Z,99312.42
2018-08-30T04:51:52.056Z,99319.77
2018-08-30T04:54:20.984Z,99318.42
2018-08-30T04:56:50.388Z,99320.06
2018-08-30T04:59:18.751Z,99325.95
2018-08-30T05:01:47.607Z,99327.45
2018-08-30T05:04:16.206Z,99329.47
2018-08-30T05:06:45.155Z,99340.22
2018-08-30T05:09:13.992Z,99339.03
2018-08-30T05:11:42.352Z,99347.05
2018-08-30T05:14:11.284Z,99346.36
2018-08-30T05:16:39.688Z,99347.53
2018-08-30T05:19:08.112Z,99351.06
2018-08-30T05:21:36.526Z,99354.27
2018-08-30T05:24:04.895Z,99356.92
2018-08-30T05:26:33.270Z,99357.75
2018-08-30T05:29:02.540Z,99364.33
2018-08-30T05:31:31.572Z,99369.17
2018-08-30T05:34:01.219Z,99369.13
2018-08-30T05:36:30.453Z,99371.48
2018-08-30T05:38:58.836Z,99373.50
2018-08-30T05:41:28.036Z,99374.98
2018-08-30T05:43:57.911Z,99367.00
2018-08-30T05:46:27.266Z,99379.87
2018-08-30T05:48:56.183Z,99383.16
2018-08-30T05:51:25.158Z,99370.44
2018-08-30T05:53:54.081Z,99373.12
2018-08-30T05:56:23.272Z,99380.10
2018-08-30T05:58:52.101Z,99384.55
2018-08-30T06:01:20.748Z,99382.95
2018-08-30T06:03:50.829Z,99390.84
2018-08-30T06:06:19.871Z,99377.30
2018-08-30T06:08:50.421Z,99382.95
2018-08-30T06:11:19.986Z,99379.78
2018-08-30T06:13:49.652Z,99383.22
2018-08-30T06:16:19.515Z,99385.38
2018-08-30T06:18:48.595Z,99388.28
2018-08-30T06:21:16.964Z,99381.42
2018-08-30T06:23:46.446Z,99382.05
2018-08-30T06:26:16.523Z,99384.67
2018-08-30T06:28:46.268Z,99393.67
2018-08-30T06:31:15.503Z,99391.53
2018-08-30T06:33:44.559Z,99389.56
2018-08-30T06:36:13.368Z,99392.14
2018-08-30T06:38:42.005Z,99392.63
2018-08-30T06:41:10.428Z,99397.31
2018-08-30T06:43:38.818Z,99398.67
2018-08-30T06:46:07.486Z,99397.39
2018-08-30T06:48:36.723Z,99406.02
2018-08-30T06:51:06.938Z,99405.94
2018-08-30T06:53:36.548Z,99414.31
2018-08-30T06:56:05.801Z,99416.58
2018-08-30T06:58:35.017Z,99414.61
2018-08-30T07:01:03.584Z,99421.81
2018-08-30T07:03:32.407Z,99414.55
2018-08-30T07:06:01.392Z,99424.62
2018-08-30T07:08:30.546Z,99423.73
2018-08-30T07:11:00.738Z,99428.61
2018-08-30T07:13:32.420Z,99426.45
2018-08-30T07:16:00.846Z,99430.41
2018-08-30T07:18:29.261Z,99431.19
2018-08-30T07:20:58.501Z,99438.11
2018-08-30T07:23:27.778Z,99440.60
2018-08-30T07:25:56.919Z,99445.55
2018-08-30T07:28:26.853Z,99443.63
2018-08-30T07:30:55.646Z,99442.12
2018-08-30T07:33:25.131Z,99448.12
2018-08-30T07:35:55.598Z,99449.62
2018-08-30T07:38:24.306Z,99455.03
2018-08-30T07:40:54.111Z,99453.38
2018-08-30T07:43:23.895Z,99466.57
2018-08-30T07:45:53.228Z,99464.70
2018-08-30T07:48:21.873Z,99463.86
2018-08-30T07:50:50.598Z,99465.13
2018-08-30T07:53:19.851Z,99463.05
2018-08-30T07:55:50.656Z,99471.96
2018-08-30T07:58:23.679Z,99471.48
2018-08-30T08:00:53.992Z,99473.91
2018-08-30T08:03:23.096Z,99473.76
2018-08-30T08:05:52.388Z,99471.97
2018-08-30T08:08:21.756Z,99480.69
2018-08-30T08:10:50.376Z,99488.84
2018-08-30T08:13:19.844Z,99482.50
2018-08-30T08:15:48.300Z,99482.63
2018-08-30T08:18:18.992Z,99488.53
2018-08-30T08:20:48.759Z,99482.91
2018-08-30T08:23:17.679Z,99489.69
2018-08-30T08:25:49.234Z,99494.04
2018-08-30T08:28:19.528Z,99491.47
2018-08-30T08:30:53.008Z,99499.63
2018-08-30T08:33:21.710Z,99501.36
2018-08-30T08:35:50.858Z,99498.61
2018-08-30T08:38:19.225Z,99504.25
2018-08-30T08:40:48.445Z,99507.05
2018-08-30T08:43:18.299Z,99508.23
2018-08-30T08:45:47.804Z,99507.86
2018-08-30T08:48:17.013Z,99509.77
2018-08-30T08:50:45.608Z,99512.11
2018-08-30T08:53:15.382Z,99519.66
2018-08-30T08:55:44.150Z,99513.45
2018-08-30T08:58:14.367Z,99518.34
2018-08-30T09:00:44.331Z,99516.58
2018-08-30T09:03:13.475Z,99522.61
2018-08-30T09:05:45.014Z,99522.15
2018-08-30T09:08:13.387Z,99522.81
2018-08-30T09:10:43.579Z,99522.84
2018-08-30T09:13:12.527Z,99468.20
2018-08-30T09:15:41.460Z,99522.84
2018-08-30T09:18:09.948Z,99524.88
2018-08-30T09:20:38.864Z,99531.03
2018-08-30T09:23:07.813Z,99527.68
2018-08-30T09:25:36.384Z,99530.98
2018-08-30T09:28:07.432Z,99529.22
2018-08-30T09:30:37.957Z,99536.56
2018-08-30T09:33:07.324Z,99529.98
2018-08-30T09:35:38.411Z,99532.81
2018-08-30T09:38:07.747Z,99531.03
2018-08-30T09:40:39.269Z,99528.12
2018-08-30T09:43:07.806Z,99526.47
2018-08-30T09:45:37.944Z,99532.34
2018-08-30T09:48:07.079Z,99530.42
2018-08-30T09:50:36.262Z,99531.59
2018-08-30T09:53:05.535Z,99532.18
2018-08-30T09:55:34.510Z,99526.34
2018-08-30T09:58:05.782Z,99527.60
2018-08-30T10:00:40.667Z,99525.55
2018-08-30T10:03:11.871Z,99526.38
2018-08-30T10:05:43.342Z,99525.71
2018-08-30T10:08:17.444Z,99531.22
2018-08-30T10:10:47.312Z,99531.26
2018-08-30T10:13:18.770Z,99529.05
2018-08-30T10:15:49.570Z,99524.49
2018-08-30T10:18:20.565Z,99505.41
2018-08-30T10:20:54.948Z,99524.17
2018-08-30T10:23:23.361Z,99520.70
2018-08-30T10:25:54.100Z,99519.73
2018-08-30T10:28:29.376Z,99527.45
2018-08-30T10:31:00.009Z,99497.04
2018-08-30T10:33:29.948Z,99530.16
2018-08-30T10:35:59.369Z,99528.59
2018-08-30T10:38:31.940Z,99524.67
2018-08-30T10:41:02.055Z,99529.06
2018-08-30T10:43:31.061Z,99535.19
2018-08-30T10:46:01.897Z,99518.19
2018-08-30T10:48:32.833Z,99520.37
2018-08-30T10:51:03.013Z,99519.77
2018-08-30T10:53:33.098Z,99512.22
2018-08-30T10:56:09.449Z,99511.13
2018-08-30T10:58:40.319Z,99515.80
2018-08-30T11:01:10.580Z,99512.50
2018-08-30T11:03:41.960Z,99512.49
2018-08-30T11:06:11.587Z,99512.27
2018-08-30T11:08:43.186Z,99512.78
2018-08-30T11:11:13.704Z,99513.78
2018-08-30T11:13:42.067Z,99516.54
2018-08-30T11:16:10.915Z,99513.42
2018-08-30T11:18:41.329Z,99513.14
2018-08-30T11:21:10.685Z,99509.00
2018-08-30T11:23:39.819Z,99514.36
2018-08-30T11:26:09.327Z,99507.41
2018-08-30T11:28:40.156Z,99511.95
2018-08-30T11:31:09.615Z,99509.32
2018-08-30T11:33:38.704Z,99513.81
2018-08-30T11:36:08.743Z,99512.34
2018-08-30T11:38:38.467Z,99509.97
2018-08-30T11:41:06.879Z,99516.05
2018-08-30T11:43:38.371Z,99510.98
2018-08-30T11:46:09.932Z,99516.75
2018-08-30T11:48:38.308Z,99516.04
2018-08-30T11:51:08.521Z,99515.23
2018-08-30T11:53:38.267Z,99511.64
2018-08-30T11:56:07.540Z,99512.17
2018-08-30T11:58:37.246Z,99510.31
2018-08-30T12:01:06.748Z,99513.55
2018-08-30T12:03:35.707Z,99512.44
2018-08-30T12:06:06.717Z,99519.50
2018-08-30T12:08:35.680Z,99517.16
2018-08-30T12:11:05.401Z,99518.56
2018-08-30T12:13:34.154Z,99522.98
2018-08-30T12:16:04.313Z,99527.83
2018-08-30T12:18:34.080Z,99524.15
2018-08-30T12:21:03.701Z,99519.10
2018-08-30T12:23:33.189Z,99519.75
2018-08-30T12:26:01.748Z,99525.00
2018-08-30T12:28:31.286Z,99522.47
2018-08-30T12:31:01.250Z,99521.42
2018-08-30T12:33:30.832Z,99527.14
2018-08-30T12:36:00.592Z,99531.81
2018-08-30T12:38:28.857Z,99528.46
2018-08-30T12:40:58.895Z,99524.62
2018-08-30T12:43:30.087Z,99532.19
2018-08-30T12:46:04.320Z,99526.04
2018-08-30T12:48:33.836Z,99524.22
2018-08-30T12:51:04.628Z,99517.46
2018-08-30T12:53:36.117Z,99521.30
2018-08-30T12:56:06.401Z,99522.85
2018-08-30T12:58:36.415Z,99523.04
2018-08-30T13:01:05.258Z,99523.77
2018-08-30T13:03:35.549Z,99522.48
2018-08-30T13:06:05.394Z,99517.88
2018-08-30T13:08:34.713Z,99518.53
2018-08-30T13:11:04.229Z,99526.20
2018-08-30T13:13:33.754Z,99521.55
2018-08-30T13:16:03.475Z,99522.59
2018-08-30T13:18:32.653Z,99516.62
2018-08-30T13:21:03.194Z,99518.84
2018-08-30T13:23:31.517Z,99518.83
2018-08-30T13:26:01.144Z,99516.62
2018-08-30T13:28:31.511Z,99522.10
2018-08-30T13:31:00.539Z,99519.47
2018-08-30T13:33:29.118Z,99516.45
2018-08-30T13:35:57.549Z,99489.78
2018-08-30T13:38:26.711Z,99520.81
2018-08-30T13:40:56.566Z,99514.85
2018-08-30T13:43:26.073Z,99518.77
2018-08-30T13:45:55.195Z,99515.59
2018-08-30T13:48:23.568Z,99521.84
2018-08-30T13:50:54.209Z,99522.50
2018-08-30T13:53:23.707Z,99523.41
2018-08-30T13:55:52.576Z,99522.71
2018-08-30T13:58:21.079Z,99522.03
2018-08-30T14:00:51.081Z,99525.95
2018-08-30T14:03:18.931Z,99525.02
2018-08-30T14:05:48.567Z,99519.88
2018-08-30T14:08:18.133Z,99523.88
2018-08-30T14:10:47.378Z,99527.21
2018-08-30T14:13:19.408Z,99528.74
2018-08-30T14:15:47.591Z,99523.06
2018-08-30T14:18:17.679Z,99525.44
2018-08-30T14:20:46.677Z,99519.98
2018-08-30T14:23:16.873Z,99524.30
2018-08-30T14:25:46.933Z,99522.13
2018-08-30T14:28:17.192Z,99514.84
2018-08-30T14:30:46.386Z,99515.59
2018-08-30T14:33:14.891Z,99517.79
2018-08-30T14:35:44.589Z,99522.48
2018-08-30T14:38:13.176Z,99513.61
2018-08-30T14:40:43.817Z,99506.05
2018-08-30T14:43:15.137Z,99514.20
2018-08-30T14:45:44.546Z,99505.41
2018-08-30T14:48:14.748Z,99509.30
2018-08-30T14:50:43.398Z,99509.25
2018-08-30T14:53:13.843Z,99502.37
2018-08-30T14:55:45.132Z,99507.20
2018-08-30T14:58:15.291Z,99508.00
2018-08-30T15:00:45.067Z,99512.24
2018-08-30T15:03:14.819Z,99506.88
2018-08-30T15:05:43.945Z,99516.28
2018-08-30T15:08:12.380Z,99509.84
2018-08-30T15:10:41.432Z,99503.97
2018-08-30T15:13:12.679Z,99501.89
2018-08-30T15:15:42.089Z,99505.84
2018-08-30T15:18:13.579Z,99505.33
2018-08-30T15:20:42.529Z,99512.44
2018-08-30T15:23:11.248Z,99509.46
2018-08-30T15:25:40.706Z,99511.23
2018-08-30T15:28:10.090Z,99508.80
2018-08-30T15:30:39.069Z,99510.48
2018-08-30T15:33:08.264Z,99511.11
2018-08-30T15:35:37.107Z,99509.52
2018-08-30T15:38:06.311Z,99514.13
2018-08-30T15:40:36.952Z,99518.11
2018-08-30T15:43:17.126Z,99510.28
2018-08-30T15:46:02.439Z,99509.95
2018-08-30T15:48:31.921Z,99518.34
2018-08-30T15:51:01.819Z,99507.75
2018-08-30T15:53:31.754Z,99511.93
2018-08-30T15:56:03.443Z,99518.59
2018-08-30T15:58:34.559Z,99506.80
2018-08-30T16:01:04.044Z,99507.78
2018-08-30T16:03:38.102Z,99512.34
2018-08-30T16:06:07.555Z,99508.86
2018-08-30T16:08:39.075Z,99510.83
2018-08-30T16:11:11.105Z,99509.52
2018-08-30T16:13:40.649Z,99507.77
2018-08-30T16:16:10.323Z,99508.09
2018-08-30T16:18:40.613Z,99505.83
2018-08-30T16:21:13.556Z,99509.17
2018-08-30T16:23:43.900Z,99507.30
2018-08-30T16:26:13.181Z,99506.78
2018-08-30T16:28:41.635Z,99508.45
2018-08-30T16:31:10.523Z,99507.13
2018-08-30T16:33:39.377Z,99507.30
2018-08-30T16:36:09.077Z,99507.49
2018-08-30T16:38:37.597Z,99504.02
2018-08-30T16:41:07.263Z,99501.67
2018-08-30T16:43:36.612Z,99499.80
2018-08-30T16:46:06.872Z,99505.56
2018-08-30T16:48:36.022Z,99504.78
2018-08-30T16:51:05.148Z,99514.20
2018-08-30T16:53:35.629Z,99512.34
2018-08-30T16:56:04.083Z,99512.19
2018-08-30T16:58:32.493Z,99504.41
2018-08-30T17:01:01.879Z,99501.72
2018-08-30T17:03:31.354Z,99505.86
2018-08-30T17:06:00.709Z,99494.97
2018-08-30T17:08:31.405Z,99495.94
2018-08-30T17:11:00.847Z,99493.24
2018-08-30T17:13:30.284Z,99493.36
2018-08-30T17:16:02.983Z,99498.34
2018-08-30T17:18:31.805Z,99491.91
2018-08-30T17:21:00.445Z,99497.50
2018-08-30T17:23:28.864Z,99500.39
2018-08-30T17:26:00.781Z,99497.09
2018-08-30T17:28:30.631Z,99498.08
2018-08-30T17:31:00.520Z,99507.18
2018-08-30T17:33:30.104Z,99504.61
2018-08-30T17:35:59.597Z,99500.11
2018-08-30T17:38:28.916Z,99501.16
2018-08-30T17:40:59.445Z,99499.77
2018-08-30T17:43:28.483Z,99501.83
2018-08-30T17:45:58.039Z,99503.84
2018-08-30T17:48:27.910Z,99501.62
2018-08-30T17:50:57.343Z,99499.96
2018-08-30T17:53:27.603Z,99503.38
2018-08-30T17:55:56.188Z,99498.79
2018-08-30T17:58:25.016Z,99505.25
2018-08-30T18:00:54.739Z,99496.09
2018-08-30T18:03:24.220Z,99500.97
2018-08-30T18:06:00.264Z,99502.44
2018-08-30T18:08:28.728Z,99504.78
2018-08-30T18:10:57.160Z,99507.27
2018-08-30T18:13:26.993Z,99511.11
2018-08-30T18:15:56.208Z,99513.32
2018-08-30T18:18:25.874Z,99514.70
2018-08-30T18:20:55.191Z,99519.86
2018-08-30T18:23:25.758Z,99520.78
2018-08-30T18:25:56.867Z,99520.66
2018-08-30T18:28:25.292Z,99523.95
2018-08-30T18:30:58.854Z,99520.42
2018-08-30T18:33:29.036Z,99529.34
2018-08-30T18:35:58.978Z,99534.63
2018-08-30T18:38:28.995Z,99538.18
2018-08-30T18:40:57.981Z,99538.23
2018-08-30T18:43:27.089Z,99540.27
2018-08-30T18:45:57.259Z,99547.66
2018-08-30T18:48:26.631Z,99548.18
2018-08-30T18:50:57.853Z,99546.67
2018-08-30T18:53:28.418Z,99553.88
2018-08-30T18:55:57.425Z,99554.56
2018-08-30T18:58:25.880Z,99560.95
2018-08-30T19:00:54.982Z,99563.62
2018-08-30T19:03:25.787Z,99564.47
2018-08-30T19:05:54.207Z,99566.50
2018-08-30T19:08:24.535Z,99561.92
2018-08-30T19:10:53.792Z,99568.85
2018-08-30T19:13:24.179Z,99562.98
2018-08-30T19:16:01.651Z,99569.70
2018-08-30T19:18:35.276Z,99572.38
2018-08-30T19:21:04.128Z,99574.37
2018-08-30T19:23:34.200Z,99579.86
2018-08-30T19:26:03.537Z,99577.13
2018-08-30T19:28:31.918Z,99581.52
2018-08-30T19:31:02.542Z,99582.30
2018-08-30T19:33:32.532Z,99585.64
2018-08-30T19:36:07.200Z,99589.34
2018-08-30T19:38:35.659Z,99588.98
2018-08-30T19:41:11.262Z,99590.20
2018-08-30T19:43:40.305Z,99585.84
2018-08-30T19:46:14.052Z,99588.86
2018-08-30T19:48:44.573Z,99587.91
2018-08-30T19:51:14.820Z,99583.27
2018-08-30T19:53:44.042Z,99599.62
2018-08-30T19:56:14.927Z,99594.56
2018-08-30T19:58:45.962Z,99597.59
2018-08-30T20:01:15.772Z,99594.76
2018-08-30T20:03:45.132Z,99595.30
2018-08-30T20:06:15.840Z,99599.32
2018-08-30T20:08:48.586Z,99587.27
2018-08-30T20:11:19.143Z,99489.30
2018-08-30T20:13:49.289Z,99594.12
2018-08-30T20:16:19.167Z,99597.11
2018-08-30T20:18:49.686Z,99596.94
2018-08-30T20:21:20.201Z,99608.13
2018-08-30T20:23:50.315Z,99606.42
2018-08-30T20:26:19.127Z,99601.89
2018-08-30T20:28:48.313Z,99610.81
2018-08-30T20:31:17.864Z,99610.16
2018-08-30T20:33:47.603Z,99608.61
2018-08-30T20:36:17.784Z,99603.08
2018-08-30T20:38:47.232Z,99612.09
2018-08-30T20:41:16.832Z,99604.11
2018-08-30T20:43:46.957Z,99611.06
2018-08-30T20:46:15.723Z,99620.41
2018-08-30T20:48:49.619Z,99617.91
2018-08-30T20:51:18.758Z,99629.31
2018-08-30T20:53:47.673Z,99627.59
2018-08-30T20:56:16.724Z,99617.53
2018-08-30T20:58:46.015Z,99618.28
2018-08-30T21:01:15.519Z,99621.76
2018-08-30T21:03:44.597Z,99619.57
2018-08-30T21:06:13.896Z,99612.76
2018-08-30T21:08:42.827Z,99612.50
2018-08-30T21:11:12.421Z,99609.84
2018-08-30T21:13:40.871Z,99603.27
2018-08-30T21:16:11.242Z,99600.93
2018-08-30T21:18:40.564Z,99602.48
2018-08-30T21:21:10.452Z,99601.09
2018-08-30T21:23:39.504Z,99607.20
2018-08-30T21:26:09.605Z,99608.28
2018-08-30T21:28:40.783Z,99605.81
2018-08-30T21:31:12.018Z,99612.52
2018-08-30T21:33:44.584Z,99577.61
2018-08-30T21:36:20.740Z,99609.11
2018-08-30T21:38:53.366Z,99612.06
2018-08-30T21:41:25.309Z,99608.80
2018-08-30T21:43:58.273Z,99612.89
2018-08-30T21:46:33.432Z,99613.64
2018-08-30T21:49:04.426Z,99620.59
2018-08-30T21:51:34.163Z,99620.31
2018-08-30T21:54:07.628Z,99614.83
2018-08-30T21:56:38.504Z,99610.41
2018-08-30T21:59:08.666Z,99613.37
2018-08-30T22:01:41.827Z,99610.75
2018-08-30T22:04:13.711Z,99592.09
2018-08-30T22:06:43.085Z,99613.59
2018-08-30T22:09:13.405Z,99491.50
2018-08-30T22:11:44.769Z,99613.09
2018-08-30T22:14:16.424Z,99611.34
2018-08-30T22:16:45.436Z,99609.48
2018-08-30T22:19:15.180Z,99611.41
2018-08-30T22:21:43.889Z,99610.01
2018-08-30T22:24:12.865Z,99607.95
2018-08-30T22:26:42.689Z,99609.11
2018-08-30T22:29:12.184Z,99603.64
2018-08-30T22:31:41.101Z,99591.78
2018-08-30T22:34:11.208Z,99597.63
2018-08-30T22:36:41.416Z,99592.34
2018-08-30T22:41:43.859Z,99594.05
2018-08-30T22:44:13.450Z,99600.30
2018-08-30T22:46:44.315Z,99603.11
2018-08-30T22:49:13.360Z,99597.37
2018-08-30T22:51:42.497Z,99594.09
2018-08-30T22:54:11.311Z,99588.83
2018-08-30T22:56:40.073Z,99586.53
2018-08-30T22:59:10.151Z,99587.45
2018-08-30T23:01:39.036Z,99591.50
2018-08-30T23:04:07.666Z,99588.79
2018-08-30T23:06:36.502Z,99586.78
2018-08-30T23:09:06.682Z,99590.50
2018-08-30T23:11:35.861Z,99601.66
2018-08-30T23:14:05.062Z,99596.61
2018-08-30T23:16:37.696Z,99593.00
2018-08-30T23:19:06.091Z,99589.22
2018-08-30T23:21:34.928Z,99590.52
2018-08-30T23:24:04.192Z,99586.25
2018-08-30T23:26:33.044Z,99578.90
2018-08-30T23:29:02.118Z,99579.09
2018-08-30T23:31:31.790Z,99568.34
2018-08-30T23:34:01.278Z,99575.41
2018-08-30T23:36:30.869Z,99574.08
2018-08-30T23:39:01.201Z,99579.03
2018-08-30T23:41:30.186Z,99578.36
2018-08-30T23:43:59.480Z,99574.41
2018-08-30T23:46:30.330Z,99577.52
2018-08-30T23:49:01.952Z,99571.71
2018-08-30T23:51:30.369Z,99572.53
2018-08-30T23:53:59.832Z,99567.86
2018-08-30T23:56:29.271Z,99570.41
2018-08-30T23:59:08.810Z,99571.86
